Time;durP1;ratioP1;P1;durP2;ratioP2;P2;SDS_P1;SDS_P2;PMS_P1;PMS_P2;Temp;Humidity;BMP_temperature;BMP_pressure;BME280_temperature;BME280_humidity;BME280_pressure;Samples;Min_cycle;Max_cycle;Signal;HPM_P1;HPM_P2
2022/08/11 00:00:00;;;;;;;5.67;4.47;;;;;;;25.55;56.20;101340.52;1294876;109;21675;-49
2022/08/11 00:02:35;;;;;;;7.65;4.55;;;;;;;25.48;56.65;101311.28;1295483;109;21688;-49
2022/08/11 00:05:06;;;;;;;6.40;4.30;;;;;;;25.40;57.03;101294.13;1270028;112;21248;-49
2022/08/11 00:07:33;;;;;;;9.45;4.65;;;;;;;25.30;57.22;101283.80;1269065;111;21214;-49
2022/08/11 00:10:00;;;;;;;4.30;3.90;;;;;;;25.18;57.62;101288.23;1263996;111;21185;-48
2022/08/11 00:12:26;;;;;;;5.90;3.90;;;;;;;25.11;57.83;101282.98;1275107;111;21682;-48
2022/08/11 00:14:59;;;;;;;4.33;3.95;;;;;;;25.09;58.33;101289.38;1261618;111;21294;-49
2022/08/11 00:17:30;;;;;;;4.47;4.10;;;;;;;25.06;58.29;101294.95;1263996;112;21168;-47
2022/08/11 00:20:07;;;;;;;3.98;3.62;;;;;;;25.04;58.60;101291.03;1278663;110;21166;-48
2022/08/11 00:22:37;;;;;;;4.28;3.87;;;;;;;25.02;58.42;101287.64;1290439;110;21198;-49
2022/08/11 00:25:19;;;;;;;4.10;3.70;;;;;;;25.02;58.58;101280.98;1360526;103;21643;-49
2022/08/11 00:27:47;;;;;;;4.05;3.75;;;;;;;25.02;57.77;101278.31;1387750;103;21697;-47
2022/08/11 00:30:14;;;;;;;4.50;4.10;;;;;;;24.99;57.51;101282.55;1387803;103;21694;-49
2022/08/11 00:32:44;;;;;;;4.75;4.35;;;;;;;24.97;57.54;101280.48;1387885;103;21131;-49
2022/08/11 00:35:14;;;;;;;4.28;3.87;;;;;;;24.93;57.19;101280.34;1387821;102;21123;-47
2022/08/11 00:37:47;;;;;;;4.62;4.00;;;;;;;24.93;57.19;101280.34;1388249;102;21204;-48
2022/08/11 00:40:34;;;;;;;4.30;3.90;;;;;;;24.90;57.00;101268.57;1411151;102;21283;-50
2022/08/11 00:43:21;;;;;;;4.40;3.62;;;;;;;24.86;57.16;101266.63;1371442;103;21184;-48
2022/08/11 00:46:18;;;;;;;3.37;3.10;;;;;;;24.83;57.25;101255.36;1369563;105;21202;-50
2022/08/11 00:49:10;;;;;;;5.12;4.28;;;;;;;24.82;57.10;101262.95;1353328;105;21217;-48
2022/08/11 00:52:00;;;;;;;4.35;3.90;;;;;;;24.78;57.47;101261.48;1355115;105;21692;-51
2022/08/11 00:55:01;;;;;;;5.20;4.17;;;;;;;24.78;57.30;101256.16;1368811;104;21096;-50
2022/08/11 00:58:07;;;;;;;6.22;4.45;;;;;;;24.78;57.41;101259.68;1360001;105;21164;-51
2022/08/11 01:01:02;;;;;;;7.97;4.33;;;;;;;24.77;57.15;101258.47;1354577;106;21193;-50
2022/08/11 01:04:14;;;;;;;4.60;4.20;;;;;;;24.72;57.53;101251.25;1390520;103;21633;-55
2022/08/11 01:06:59;;;;;;;4.80;4.40;;;;;;;24.71;57.63;101258.88;1391242;102;21153;-49
2022/08/11 01:10:07;;;;;;;4.45;4.05;;;;;;;24.72;57.91;101256.58;1399525;102;21107;-52
2022/08/11 01:13:03;;;;;;;5.05;4.53;;;;;;;24.73;57.71;101242.32;1398623;103;21655;-55
2022/08/11 01:15:54;;;;;;;4.90;4.50;;;;;;;24.76;57.62;101244.77;1395877;102;21132;-49
2022/08/11 01:19:15;;;;;;;4.67;4.20;;;;;;;24.75;57.55;101243.09;1382470;101;21694;-55
2022/08/11 01:22:25;;;;;;;4.87;4.40;;;;;;;24.68;57.76;101232.00;1422293;99;21166;-49
2022/08/11 01:25:37;;;;;;;7.12;4.85;;;;;;;24.68;57.76;101232.00;1437853;97;21100;-51
2022/08/11 01:28:10;;;;;;;;;;;;;;;24.64;57.83;101217.22;1474667;95;21072;-48
2022/08/11 01:30:57;;;;;;;5.45;4.92;;;;;;;24.64;58.08;101209.24;1421746;100;20141;-49
2022/08/11 01:34:00;;;;;;;5.12;4.50;;;;;;;24.63;58.07;101214.65;1408672;100;21068;-50
2022/08/11 01:36:57;;;;;;;4.58;4.17;;;;;;;24.62;58.21;101206.31;1421785;98;21112;-50
2022/08/11 01:39:42;;;;;;;4.40;3.85;;;;;;;24.62;58.46;101207.64;1481324;93;21164;-48
2022/08/11 01:46:10;;;;;;;4.92;4.47;;;;;;;24.62;58.87;101204.98;1487232;96;21094;-50
2022/08/11 01:48:42;;;;;;;4.50;4.10;;;;;;;24.60;58.32;101201.59;1491043;95;21701;-50
2022/08/11 01:52:05;;;;;;;4.85;4.37;;;;;;;24.54;58.64;101187.41;1491117;95;21688;-51
2022/08/11 01:54:44;;;;;;;4.85;4.45;;;;;;;24.56;58.96;101192.98;1489059;95;21077;-48
2022/08/11 01:57:31;;;;;;;4.97;4.58;;;;;;;24.56;58.96;101192.98;1490935;95;21074;-49
2022/08/11 02:00:18;;;;;;;5.42;4.08;;;;;;;24.62;58.60;101197.00;1490869;95;21141;-50
2022/08/11 02:03:17;;;;;;;5.28;4.03;;;;;;;24.62;58.60;101197.00;1451878;98;21188;-49
2022/08/11 02:09:26;;;;;;;4.62;4.22;;;;;;;24.64;58.53;101189.76;1386008;102;21136;-50
2022/08/11 02:11:58;;;;;;;6.72;4.90;;;;;;;24.63;58.45;101193.36;1402187;100;21181;-50
2022/08/11 02:14:34;;;;;;;4.78;4.28;;;;;;;24.61;58.61;101195.28;1417726;100;21641;-52
2022/08/11 02:17:20;;;;;;;5.35;4.35;;;;;;;24.52;58.80;101180.02;1380053;103;21140;-54
2022/08/11 02:26:10;;;;;;;5.08;4.67;;;;;;;24.49;58.94;101185.54;1358654;103;21116;-49
2022/08/11 02:29:01;;;;;;;5.72;4.22;;;;;;;24.46;58.98;101180.46;1347968;105;21226;-50
2022/08/11 02:35:05;;;;;;;5.20;4.70;;;;;;;24.44;59.23;101178.39;1346558;105;21600;-53
2022/08/11 02:38:12;;;;;;;5.58;5.08;;;;;;;24.40;59.12;101182.23;1406239;101;21169;-52
2022/08/11 02:40:56;;;;;;;5.92;5.00;;;;;;;24.36;59.41;101191.40;1443925;98;21143;-51
2022/08/11 02:43:34;;;;;;;4.72;4.33;;;;;;;24.34;59.41;101182.69;1433246;99;21577;-50
2022/08/11 02:46:30;;;;;;;4.72;4.33;;;;;;;24.33;59.34;101195.12;1438370;98;21069;-49
2022/08/11 02:52:08;;;;;;;5.12;4.62;;;;;;;24.33;59.80;101203.58;1374877;103;21619;-51
2022/08/11 02:54:58;;;;;;;5.50;5.00;;;;;;;24.32;59.55;101193.91;1321343;107;21161;-49
2022/08/11 02:57:29;;;;;;;5.20;4.80;;;;;;;24.29;59.60;101199.44;1334512;106;21252;-49
2022/08/11 03:00:08;;;;;;;5.05;4.65;;;;;;;24.28;59.65;101211.88;1342010;106;21702;-49
2022/08/11 03:02:52;;;;;;;5.22;4.72;;;;;;;24.29;59.65;101215.39;1353271;105;21117;-49
2022/08/11 03:05:50;;;;;;;5.28;4.78;;;;;;;24.29;59.63;101216.25;1351218;105;21601;-50
2022/08/11 03:08:32;;;;;;;5.10;4.60;;;;;;;24.30;59.67;101218.44;1339483;106;21164;-53
2022/08/11 03:16:59;;;;;;;4.83;4.42;;;;;;;24.36;59.45;101229.97;1301337;109;21192;-49
2022/08/11 03:19:41;;;;;;;5.33;4.55;;;;;;;24.39;59.64;101244.36;1313841;109;21739;-48
2022/08/11 03:22:22;;;;;;;;;;;;;;;24.45;59.55;101239.93;1308141;109;21182;-50
2022/08/11 03:25:07;;;;;;;5.83;5.30;;;;;;;24.49;59.30;101244.07;1300919;110;20190;-50
2022/08/11 03:28:02;;;;;;;5.25;4.85;;;;;;;24.54;59.19;101248.59;1302679;109;21692;-48
2022/08/11 03:31:02;;;;;;;6.22;4.80;;;;;;;24.57;58.94;101241.70;1307819;109;21669;-51
2022/08/11 03:34:02;;;;;;;6.78;6.08;;;;;;;24.59;58.87;101237.13;1307447;109;21191;-50
2022/08/11 03:36:47;;;;;;;6.90;6.30;;;;;;;24.61;58.85;101236.06;1312101;108;21204;-50
2022/08/11 03:39:51;;;;;;;7.00;6.22;;;;;;;24.60;58.31;101237.51;1314416;108;21213;-50
2022/08/11 03:42:29;;;;;;;6.92;5.78;;;;;;;24.60;58.14;101229.05;1317865;108;21122;-49
2022/08/11 03:45:31;;;;;;;6.28;5.67;;;;;;;24.60;57.88;101233.52;1329604;104;21133;-49
2022/08/11 03:48:10;;;;;;;5.03;4.62;;;;;;;24.59;57.70;101225.15;1351223;106;21158;-52
2022/08/11 03:51:13;;;;;;;5.03;4.53;;;;;;;24.58;57.74;101226.13;1407647;101;21157;-54
2022/08/11 03:54:08;;;;;;;5.17;4.78;;;;;;;24.55;57.69;101224.53;1428439;99;21661;-50
2022/08/11 03:57:02;;;;;;;4.17;3.87;;;;;;;24.51;57.71;101226.19;1420098;96;21616;-49
2022/08/11 04:00:09;;;;;;;4.20;3.90;;;;;;;24.50;57.71;101232.48;1477188;95;21138;-52
2022/08/11 04:02:56;;;;;;;4.20;3.90;;;;;;;24.48;58.13;101231.75;1474190;96;21602;-50
2022/08/11 04:06:11;;;;;;;4.90;4.50;;;;;;;24.47;57.98;101230.03;1481411;95;21107;-51
2022/08/11 04:09:05;;;;;;;4.20;3.85;;;;;;;24.46;58.25;101238.98;1516743;93;21045;-51
2022/08/11 04:12:16;;;;;;;4.95;4.50;;;;;;;24.48;58.25;101232.61;1536953;93;21091;-49
2022/08/11 04:18:29;;;;;;;4.47;4.08;;;;;;;24.53;57.99;101237.56;1564794;91;21085;-50
2022/08/11 04:21:24;;;;;;;4.80;4.40;;;;;;;24.55;58.09;101237.83;1552437;92;21106;-49
2022/08/11 04:24:18;;;;;;;4.47;4.08;;;;;;;24.59;58.01;101242.45;1467341;97;21178;-49
2022/08/11 04:27:12;;;;;;;4.62;3.95;;;;;;;24.61;57.83;101243.19;1467378;98;21120;-49
2022/08/11 04:30:14;;;;;;;4.90;4.40;;;;;;;24.62;57.95;101244.90;1467656;98;21100;-48
2022/08/11 04:33:03;;;;;;;4.92;4.37;;;;;;;24.65;57.96;101245.98;1470754;98;21131;-49
2022/08/11 04:35:59;;;;;;;4.75;4.30;;;;;;;24.68;57.94;101243.98;1470737;98;21147;-49
2022/08/11 04:38:40;;;;;;;4.90;4.53;;;;;;;24.69;57.70;101244.33;1471122;97;21138;-48
2022/08/11 04:43:19;;;;;;;4.30;4.00;;;;;;;24.70;57.68;101243.86;1470735;98;21178;-52
2022/08/11 04:44:30;;;;;;;4.12;3.83;;;;;;;24.72;57.81;101237.95;1410349;101;21207;-49
2022/08/11 05:02:35;;;;;;;4.53;4.10;;;;;;;24.75;57.61;101213.81;1461074;98;21150;-51
2022/08/11 05:05:45;;;;;;;4.80;4.15;;;;;;;24.75;57.46;101213.81;1462642;98;21121;-50
2022/08/11 05:08:55;;;;;;;4.40;4.10;;;;;;;24.73;57.47;101215.23;1462465;98;21197;-51
2022/08/11 05:11:44;;;;;;;4.15;3.75;;;;;;;24.74;57.65;101220.09;1462609;98;21120;-50
2022/08/11 05:36:55;;;;;;;5.28;3.85;;;;;;;24.93;57.92;101207.13;1474099;95;21128;-54
2022/08/11 05:56:21;;;;;;;5.15;4.65;;;;;;;25.13;57.64;101222.47;1486259;95;21088;-50
2022/08/11 05:58:52;;;;;;;5.37;4.97;;;;;;;25.17;57.90;101217.75;1507114;94;21093;-51
2022/08/11 06:01:23;;;;;;;;;;;;;;;25.17;57.90;101217.75;1521563;94;21093;-53
2022/08/11 06:09:07;;;;;;;3.75;3.45;;;;;;;25.25;57.59;101226.01;1556663;90;21040;-52
2022/08/11 06:11:38;;;;;;;4.62;3.90;;;;;;;25.27;57.56;101216.09;1558482;91;21125;-49
2022/08/11 06:14:06;;;;;;;4.53;4.12;;;;;;;25.29;57.32;101215.02;1558422;91;21598;-51
2022/08/11 06:16:34;;;;;;;4.45;4.00;;;;;;;25.30;57.47;101204.74;1558033;91;21017;-52
2022/08/11 06:19:01;;;;;;;4.42;4.03;;;;;;;25.32;57.45;101209.47;1558008;90;21564;-55
2022/08/11 06:21:28;;;;;;;4.83;3.98;;;;;;;25.32;57.50;101197.48;1559096;91;21052;-53
2022/08/11 06:23:55;;;;;;;4.40;3.77;;;;;;;25.34;57.56;101194.69;1524709;93;21066;-52
2022/08/11 06:26:21;;;;;;;3.70;3.42;;;;;;;25.36;57.62;101196.28;1525617;93;21078;-50
2022/08/11 06:28:48;;;;;;;4.05;3.47;;;;;;;25.38;57.73;101198.34;1525770;93;21040;-53
2022/08/11 06:31:23;;;;;;;5.28;3.80;;;;;;;25.38;57.73;101198.34;1527224;93;21084;-50
2022/08/11 06:34:00;;;;;;;4.30;4.00;;;;;;;25.37;57.41;101201.96;1506909;94;21047;-50
2022/08/11 06:36:41;;;;;;;4.40;4.00;;;;;;;25.35;57.19;101197.23;1524931;93;21055;-53
2022/08/11 06:39:28;;;;;;;4.42;4.05;;;;;;;25.39;57.31;101196.03;1521491;93;21063;-54
2022/08/11 06:42:03;;;;;;;4.28;3.87;;;;;;;25.39;57.31;101196.03;1524646;93;21160;-54
2022/08/11 06:44:37;;;;;;;4.28;3.98;;;;;;;25.40;57.34;101200.41;1524421;94;21126;-50
2022/08/11 06:47:07;;;;;;;8.48;4.30;;;;;;;25.40;57.48;101192.41;1523850;94;21097;-52
2022/08/11 06:52:37;;;;;;;3.85;3.55;;;;;;;25.46;57.61;101202.63;1551370;88;21126;-54
2022/08/11 06:55:10;;;;;;;4.00;3.70;;;;;;;25.46;57.61;101202.63;1620671;88;21038;-54
2022/08/11 07:00:27;;;;;;;4.17;3.85;;;;;;;25.37;57.74;101196.63;1617686;87;21062;-52
2022/08/11 07:03:11;;;;;;;4.10;3.80;;;;;;;25.32;57.76;101190.82;1621183;88;21098;-52
2022/08/11 07:05:49;;;;;;;5.08;4.67;;;;;;;25.50;57.41;101178.78;1622707;88;21101;-53
2022/08/11 07:17:48;;;;;;;7.95;3.58;;;;;;;25.49;57.04;101186.39;1623680;87;21042;-52
2022/08/11 07:28:56;;;;;;;4.08;3.37;;;;;;;25.63;57.04;101200.01;1629321;86;21646;-53
2022/08/11 07:31:31;;;;;;;3.83;3.37;;;;;;;25.57;57.21;101193.34;1621824;86;21126;-53
2022/08/11 07:34:12;;;;;;;5.60;4.00;;;;;;;25.60;57.17;101201.09;1621617;86;21035;-54
2022/08/11 07:36:41;;;;;;;5.50;4.92;;;;;;;25.62;57.08;101201.81;1622124;86;21054;-54
2022/08/11 07:39:14;;;;;;;4.67;4.22;;;;;;;25.64;57.09;101207.88;1641732;85;21029;-53
2022/08/11 07:41:40;;;;;;;4.22;3.83;;;;;;;25.66;57.05;101212.61;1641860;85;21071;-49
2022/08/11 07:44:10;;;;;;;4.12;3.72;;;;;;;25.73;56.96;101216.98;1645264;86;21095;-53
2022/08/11 07:52:29;;;;;;;4.30;3.90;;;;;;;25.81;56.54;101225.23;1738879;81;21519;-49
2022/08/11 07:55:03;;;;;;;4.08;3.77;;;;;;;25.83;56.56;101226.82;1723976;81;20959;-50
2022/08/11 08:19:43;;;;;;;4.65;3.50;;;;;;;26.00;55.96;101211.31;1736610;81;21034;-53
2022/08/11 08:22:11;;;;;;;4.15;3.75;;;;;;;26.05;55.87;101219.81;1694331;84;21490;-52
2022/08/11 08:24:40;;;;;;;5.78;4.37;;;;;;;26.15;55.63;101210.15;1699496;83;21003;-52
2022/08/11 08:27:11;;;;;;;4.15;3.75;;;;;;;26.12;55.70;101211.23;1695624;84;21014;-53
2022/08/11 08:32:23;;;;;;;3.77;3.47;;;;;;;26.23;55.34;101202.38;1736040;81;21264;-52
2022/08/11 08:34:51;;;;;;;3.70;3.40;;;;;;;26.23;55.35;101200.57;1733085;81;20980;-55
2022/08/11 08:37:19;;;;;;;3.80;3.20;;;;;;;26.28;55.34;101195.70;1733741;81;21023;-52
2022/08/11 08:39:46;;;;;;;4.25;3.95;;;;;;;26.38;55.11;101197.13;1738189;82;21003;-50
2022/08/11 08:42:20;;;;;;;3.85;3.45;;;;;;;26.42;55.21;101191.94;1726116;81;21023;-52
2022/08/11 08:45:04;;;;;;;3.52;3.22;;;;;;;26.51;54.92;101185.84;1675311;84;21026;-52
2022/08/11 08:47:37;;;;;;;4.42;4.03;;;;;;;26.59;54.64;101199.41;1732280;81;21062;-50
2022/08/11 08:50:07;;;;;;;4.00;3.70;;;;;;;26.65;54.78;101186.89;1674973;84;21073;-53
2022/08/11 08:52:39;;;;;;;3.90;3.60;;;;;;;26.71;54.56;101173.04;1701987;84;20966;-51
2022/08/11 08:55:08;;;;;;;4.90;3.90;;;;;;;26.75;54.44;101182.52;1696232;84;21003;-49
2022/08/11 08:57:36;;;;;;;3.50;3.20;;;;;;;26.78;54.23;101179.61;1744569;80;20988;-50
2022/08/11 09:00:05;;;;;;;3.98;3.67;;;;;;;26.80;54.05;101181.67;1735688;81;21038;-53
2022/08/11 09:02:33;;;;;;;4.28;3.98;;;;;;;26.82;53.92;101185.06;1735173;81;21538;-51
2022/08/11 09:05:00;;;;;;;4.55;4.22;;;;;;;26.84;53.96;101187.59;1734039;81;21015;-54
2022/08/11 09:07:27;;;;;;;4.60;4.20;;;;;;;26.85;53.82;101171.47;1696929;84;21010;-53
2022/08/11 09:09:57;;;;;;;4.37;3.98;;;;;;;26.89;53.88;101181.40;1692362;83;21057;-53
2022/08/11 09:12:29;;;;;;;4.47;3.90;;;;;;;26.93;53.75;101195.72;1710298;83;21037;-51
2022/08/11 09:15:06;;;;;;;4.28;3.95;;;;;;;26.97;54.02;101199.83;1734265;81;21060;-50
2022/08/11 09:17:41;;;;;;;4.92;4.28;;;;;;;27.06;54.25;101208.91;1728697;81;21538;-53
2022/08/11 09:20:15;;;;;;;4.45;4.05;;;;;;;27.19;54.27;101215.75;1732714;81;21511;-52
2022/08/11 09:28:18;;;;;;;5.35;4.12;;;;;;;27.47;52.42;101218.81;1641498;87;21581;-51
2022/08/11 09:30:48;;;;;;;4.25;3.85;;;;;;;27.48;52.31;101213.81;1641166;87;21641;-52
2022/08/11 09:33:15;;;;;;;5.58;4.40;;;;;;;27.51;52.70;101210.89;1635874;86;21069;-49
2022/08/11 09:35:45;;;;;;;4.50;4.10;;;;;;;27.53;52.43;101225.83;1637215;87;21050;-53
2022/08/11 09:41:06;;;;;;;5.62;5.12;;;;;;;27.60;53.04;101225.64;1624195;87;21118;-49
2022/08/11 09:46:27;;;;;;;6.78;5.65;;;;;;;27.76;52.80;101231.38;1629651;87;21538;-53
2022/08/11 09:48:58;;;;;;;6.62;5.87;;;;;;;27.83;52.28;101221.00;1639697;87;21057;-52
2022/08/11 09:51:29;;;;;;;7.17;6.30;;;;;;;27.87;52.15;101222.43;1614338;89;21055;-50
2022/08/11 09:53:55;;;;;;;6.43;5.93;;;;;;;27.87;52.23;101227.78;1614219;89;21103;-49
2022/08/11 09:59:08;;;;;;;6.12;5.53;;;;;;;27.90;52.00;101234.21;1614364;89;21122;-53
2022/08/11 10:01:51;;;;;;;6.67;5.40;;;;;;;27.88;51.91;101220.95;1614114;89;21668;-50
2022/08/11 10:04:29;;;;;;;6.95;6.20;;;;;;;27.84;51.70;101222.20;1614291;89;21507;-50
2022/08/11 10:07:03;;;;;;;6.40;5.83;;;;;;;27.81;51.53;101227.83;1611049;89;21058;-53
2022/08/11 10:09:45;;;;;;;6.33;5.62;;;;;;;27.78;51.51;101227.25;1612717;89;21134;-51
2022/08/11 10:12:36;;;;;;;6.92;6.33;;;;;;;27.77;51.54;101224.20;1614231;89;21031;-50
2022/08/11 10:28:47;;;;;;;8.15;6.80;;;;;;;27.85;51.92;101201.66;1499764;95;21589;-51
2022/08/11 10:34:02;;;;;;;6.42;5.90;;;;;;;27.90;51.15;101188.74;1499518;95;21098;-49
2022/08/11 10:36:44;;;;;;;6.70;5.90;;;;;;;27.92;51.33;101189.45;1483123;95;21102;-51
2022/08/11 10:39:16;;;;;;;6.30;5.83;;;;;;;27.95;51.42;101198.53;1485196;95;21084;-50
2022/08/11 10:44:40;;;;;;;7.05;6.50;;;;;;;28.01;51.82;101184.66;1491955;96;21168;-50
2022/08/11 10:51:12;;;;;;;7.08;6.58;;;;;;;28.07;51.24;101188.98;1423776;100;21144;-52
2022/08/11 11:00:38;;;;;;;7.05;6.55;;;;;;;28.11;51.08;101206.45;1491890;95;21088;-51
2022/08/11 11:03:04;;;;;;;7.47;6.80;;;;;;;28.11;51.05;101202.92;1493204;95;21169;-54
2022/08/11 11:05:33;;;;;;;7.10;6.50;;;;;;;28.10;51.13;101205.27;1493123;95;21112;-54
2022/08/11 11:11:00;;;;;;;6.37;5.87;;;;;;;28.07;51.72;101198.83;1460363;97;21149;-49
2022/08/11 11:18:53;;;;;;;7.42;6.70;;;;;;;28.18;51.75;101201.42;1477479;96;21073;-52
2022/08/11 11:21:19;;;;;;;7.70;7.10;;;;;;;28.23;51.64;101198.34;1498126;95;21162;-49
2022/08/11 11:24:12;;;;;;;6.45;5.87;;;;;;;28.24;51.59;101196.01;1493982;95;21606;-49
2022/08/11 11:27:06;;;;;;;7.17;6.58;;;;;;;28.27;51.72;101193.93;1488407;96;21123;-52
2022/08/11 11:29:57;;;;;;;8.83;8.13;;;;;;;28.32;52.11;101189.00;1483757;96;22511;-52
2022/08/11 11:33:09;;;;;;;8.85;8.05;;;;;;;28.40;51.65;101187.00;1481340;96;21135;-52
2022/08/11 11:35:50;;;;;;;7.60;7.00;;;;;;;28.44;51.34;101187.90;1493296;93;21121;-49
2022/08/11 11:38:17;;;;;;;7.95;7.25;;;;;;;28.50;51.47;101187.34;1503877;95;21096;-54
2022/08/11 11:41:23;;;;;;;7.45;6.85;;;;;;;28.52;51.56;101181.36;1490868;96;21608;-52
2022/08/11 11:43:12;;;;;;;6.90;6.37;;;;;;;28.54;51.99;101177.23;1525437;87;21577;-52
2022/08/11 11:45:39;;;;;;;8.50;7.10;;;;;;;28.58;51.64;101176.86;1625578;86;21125;-52
2022/08/11 11:48:06;;;;;;;8.43;7.62;;;;;;;28.60;50.92;101178.05;1581562;87;21078;-50
2022/08/11 11:50:36;;;;;;;8.23;7.42;;;;;;;28.64;50.69;101173.63;1614290;87;21648;-51
2022/08/11 11:53:08;;;;;;;8.68;7.87;;;;;;;28.67;50.80;101173.81;1595880;89;21070;-53
2022/08/11 11:55:35;;;;;;;8.25;7.53;;;;;;;28.67;50.79;101181.36;1587208;89;21066;-50
2022/08/11 12:03:36;;;;;;;7.75;7.15;;;;;;;28.67;50.92;101174.67;1649830;85;21081;-49
2022/08/11 12:06:03;;;;;;;7.83;7.12;;;;;;;28.65;50.79;101176.64;1644012;85;21037;-53
2022/08/11 12:08:31;;;;;;;8.45;7.75;;;;;;;28.65;51.21;101180.66;1643762;85;21073;-49
2022/08/11 12:13:50;;;;;;;9.88;8.98;;;;;;;28.69;51.22;101175.86;1643745;85;21069;-52
2022/08/11 12:16:22;;;;;;;9.55;8.58;;;;;;;28.70;51.33;101182.44;1643693;85;21049;-51
2022/08/11 12:18:58;;;;;;;8.68;7.95;;;;;;;28.71;51.79;101185.45;1644339;85;21533;-51
2022/08/11 12:21:27;;;;;;;7.50;6.90;;;;;;;28.72;52.04;101187.16;1643029;85;21579;-54
2022/08/11 12:29:19;;;;;;;7.92;7.22;;;;;;;28.84;50.88;101174.47;1653164;86;21123;-51
2022/08/11 12:31:46;;;;;;;8.33;7.53;;;;;;;28.88;50.68;101179.90;1653221;86;21123;-50
2022/08/11 12:34:15;;;;;;;8.18;7.47;;;;;;;28.93;50.91;101173.13;1653320;86;21071;-52
2022/08/11 12:36:45;;;;;;;8.10;7.47;;;;;;;28.97;50.05;101175.87;1653540;87;21016;-52
2022/08/11 12:39:12;;;;;;;8.50;7.75;;;;;;;29.01;49.72;101176.95;1653581;86;21083;-53
2022/08/11 12:47:17;;;;;;;7.70;7.10;;;;;;;29.12;49.44;101183.52;1613936;88;21532;-52
2022/08/11 12:52:48;;;;;;;7.58;6.92;;;;;;;29.22;49.50;101183.89;1665551;84;21572;-53
2022/08/11 12:58:14;;;;;;;8.55;7.75;;;;;;;29.27;49.53;101190.14;1665723;84;21573;-56
2022/08/11 13:06:06;;;;;;;8.35;7.45;;;;;;;29.47;49.04;101193.17;1670642;84;21041;-51
2022/08/11 13:08:35;;;;;;;7.75;7.15;;;;;;;29.53;49.28;101196.62;1670766;84;21037;-52
2022/08/11 13:13:49;;;;;;;8.15;7.45;;;;;;;29.61;48.93;101200.24;1652264;86;21080;-51
2022/08/11 13:16:16;;;;;;;8.03;7.20;;;;;;;29.66;48.67;101202.50;1670749;84;21061;-53
2022/08/11 13:18:43;;;;;;;7.78;7.08;;;;;;;29.67;48.47;101204.20;1704369;82;21025;-53
2022/08/11 13:21:10;;;;;;;8.00;7.12;;;;;;;29.65;48.28;101203.50;1723529;82;21035;-53
2022/08/11 13:23:37;;;;;;;8.58;7.78;;;;;;;29.65;48.49;101207.04;1721786;82;21055;-49
2022/08/11 13:26:04;;;;;;;8.40;7.70;;;;;;;29.63;48.81;101206.83;1737335;81;21011;-50
2022/08/11 13:28:31;;;;;;;9.30;8.33;;;;;;;29.61;48.69;101211.49;1745649;80;21495;-50
2022/08/11 13:31:13;;;;;;;8.33;7.53;;;;;;;29.56;48.22;101201.68;1734088;81;21038;-51
2022/08/11 13:33:50;;;;;;;7.97;7.28;;;;;;;29.50;48.44;101203.11;1732598;81;21015;-51
2022/08/11 13:36:20;;;;;;;7.67;6.97;;;;;;;29.45;48.83;101199.18;1731157;81;21055;-52
2022/08/11 13:38:47;;;;;;;8.28;7.47;;;;;;;29.43;48.92;101198.48;1693074;83;21589;-55
2022/08/11 13:43:59;;;;;;;8.80;8.00;;;;;;;29.38;49.35;101208.77;1727304;81;21002;-54
2022/08/11 13:46:26;;;;;;;9.18;8.38;;;;;;;29.36;49.51;101209.41;1703164;82;21086;-51
2022/08/11 13:48:54;;;;;;;8.20;7.47;;;;;;;29.33;49.53;101205.17;1733515;81;21577;-51
2022/08/11 13:51:31;;;;;;;8.33;7.53;;;;;;;29.32;49.36;101203.98;1732280;81;21026;-53
2022/08/11 13:54:11;;;;;;;8.10;7.30;;;;;;;29.29;49.00;101198.89;1737934;81;21566;-51
2022/08/11 13:56:41;;;;;;;8.20;7.50;;;;;;;29.25;49.05;101205.52;1738799;81;21110;-50
2022/08/11 13:59:08;;;;;;;8.43;7.83;;;;;;;29.21;49.29;101201.44;1731588;81;21010;-53
2022/08/11 14:01:41;;;;;;;8.30;7.60;;;;;;;29.18;49.12;101207.09;1732865;82;21646;-56
2022/08/11 14:04:11;;;;;;;9.30;8.63;;;;;;;29.15;49.25;101199.33;1692597;84;21046;-52
2022/08/11 14:06:40;;;;;;;8.90;8.20;;;;;;;29.13;49.12;101203.95;1656691;86;21038;-52
2022/08/11 14:09:07;;;;;;;10.85;9.85;;;;;;;29.11;49.22;101205.92;1692472;84;21031;-51
2022/08/11 14:14:24;;;;;;;11.73;10.72;;;;;;;29.03;49.28;101204.45;1623806;87;21008;-50
2022/08/11 14:16:53;;;;;;;11.23;10.17;;;;;;;28.92;49.43;101196.91;1628012;87;21015;-49
2022/08/11 14:19:23;;;;;;;10.90;10.00;;;;;;;28.92;49.43;101196.91;1632519;87;21527;-51
2022/08/11 14:22:07;;;;;;;10.68;9.70;;;;;;;28.92;49.63;101197.39;1627756;87;21075;-53
2022/08/11 14:24:43;;;;;;;10.50;9.48;;;;;;;28.90;49.75;101208.25;1632879;87;21126;-52
2022/08/11 14:27:11;;;;;;;11.00;10.05;;;;;;;28.89;49.96;101207.88;1694484;84;21007;-49
2022/08/11 14:29:40;;;;;;;10.48;9.55;;;;;;;28.89;50.10;101206.54;1694984;84;21035;-50
2022/08/11 14:32:10;;;;;;;9.65;8.80;;;;;;;28.89;50.03;101206.54;1692624;84;21086;-55
2022/08/11 14:34:42;;;;;;;9.30;8.50;;;;;;;28.87;50.14;101198.31;1640014;86;21051;-49
2022/08/11 14:37:14;;;;;;;9.00;8.10;;;;;;;28.84;50.01;101204.79;1639294;87;21098;-51
2022/08/11 14:39:45;;;;;;;8.55;7.75;;;;;;;28.80;50.10;101199.36;1638428;87;21010;-50
2022/08/11 14:48:00;;;;;;;9.25;8.55;;;;;;;28.78;50.55;101199.14;1638612;87;21046;-52
2022/08/11 14:50:29;;;;;;;8.90;8.20;;;;;;;28.78;50.61;101193.30;1640219;87;21086;-49
2022/08/11 14:52:59;;;;;;;9.15;8.45;;;;;;;28.77;50.63;101198.28;1631528;87;21069;-52
2022/08/11 14:58:19;;;;;;;10.63;9.53;;;;;;;28.74;50.58;101198.58;1637718;87;21026;-51
2022/08/11 15:00:48;;;;;;;10.03;9.03;;;;;;;28.74;50.32;101202.59;1646717;86;21058;-50
2022/08/11 15:03:16;;;;;;;9.35;8.60;;;;;;;28.73;50.24;101201.38;1660686;85;21050;-50
2022/08/11 15:06:00;;;;;;;10.32;8.95;;;;;;;28.71;50.72;101204.20;1658610;85;21043;-51
2022/08/11 15:14:07;;;;;;;9.05;8.15;;;;;;;28.73;51.04;101204.91;1662499;85;21530;-48
2022/08/11 15:19:22;;;;;;;9.55;8.63;;;;;;;28.80;51.34;101208.73;1636349;86;21075;-52
2022/08/11 15:24:35;;;;;;;8.93;8.08;;;;;;;28.85;51.11;101197.61;1623115;86;21125;-49
2022/08/11 15:38:08;;;;;;;9.40;8.40;;;;;;;28.96;51.03;101179.56;1698430;82;21011;-50
2022/08/11 15:46:23;;;;;;;9.33;8.63;;;;;;;28.91;51.81;101181.80;1727001;82;21062;-52
2022/08/11 15:49:01;;;;;;;10.25;9.33;;;;;;;28.90;51.89;101179.27;1686382;84;21048;-51
2022/08/11 15:51:38;;;;;;;10.95;9.95;;;;;;;28.88;52.07;101175.88;1605888;88;21098;-52
2022/08/11 15:54:18;;;;;;;10.05;9.08;;;;;;;28.84;52.27;101175.33;1556271;91;22153;-49
2022/08/11 15:56:49;;;;;;;10.85;9.75;;;;;;;28.84;52.42;101173.13;1563093;91;21655;-49
2022/08/11 16:04:10;;;;;;;10.63;9.48;;;;;;;28.82;52.88;101179.98;1563849;91;21113;-51
2022/08/11 16:04:38;;;;;;;12.28;10.98;;;;;;;28.81;52.67;101169.41;1563134;91;21065;-52
2022/08/11 16:07:12;;;;;;;11.75;10.75;;;;;;;28.82;52.52;101171.94;1566810;91;21567;-49
2022/08/11 16:09:47;;;;;;;12.47;11.25;;;;;;;28.82;52.45;101171.94;1547039;91;21593;-50
2022/08/11 16:12:21;;;;;;;11.33;10.23;;;;;;;28.82;52.41;101171.94;1506479;94;21571;-52
2022/08/11 16:17:37;;;;;;;10.72;9.45;;;;;;;28.79;53.10;101172.20;1431040;100;21172;-53
2022/08/11 16:20:06;;;;;;;10.90;9.90;;;;;;;28.78;52.97;101165.17;1390856;103;21656;-50
2022/08/11 16:25:03;;;;;;;10.25;9.20;;;;;;;28.78;52.87;101162.50;1320710;107;21175;-50
2022/08/11 16:27:32;;;;;;;10.80;9.73;;;;;;;28.80;52.50;101165.03;1315258;108;21150;-51
2022/08/11 16:29:59;;;;;;;10.00;9.20;;;;;;;28.80;52.55;101163.20;1315908;108;21209;-52
2022/08/11 16:32:26;;;;;;;11.63;10.32;;;;;;;28.80;52.35;101171.23;1298970;108;21691;-50
2022/08/11 16:40:34;;;;;;;11.15;10.05;;;;;;;28.82;53.01;101177.30;1298078;109;21186;-49
2022/08/11 16:48:35;;;;;;;8.88;8.18;;;;;;;28.80;53.12;101183.77;1326561;106;21169;-53
2022/08/11 16:51:04;;;;;;;8.68;7.87;;;;;;;28.79;53.82;101184.78;1373502;102;21199;-51
2022/08/11 16:53:31;;;;;;;9.10;8.30;;;;;;;28.75;53.86;101185.53;1440179;97;21093;-53
2022/08/11 16:56:01;;;;;;;9.10;8.40;;;;;;;28.75;53.75;101192.22;1483170;95;21642;-52
2022/08/11 17:01:16;;;;;;;8.98;8.23;;;;;;;28.73;53.71;101191.52;1483797;95;21114;-55